createdAt,value
2024-05-09T00:00:29.908Z,1013.26
2024-05-09T00:01:22.133Z,1013.33
2024-05-09T00:02:21.174Z,1013.27
2024-05-09T00:03:21.128Z,1013.26
2024-05-09T00:04:21.092Z,1013.27
2024-05-09T00:05:21.130Z,1013.31
2024-05-09T00:06:21.114Z,1013.33
2024-05-09T00:07:21.051Z,1013.31
2024-05-09T00:08:21.152Z,1013.30
2024-05-09T00:09:21.067Z,1013.34
2024-05-09T00:10:25.605Z,1013.37
2024-05-09T00:11:22.098Z,1013.32
2024-05-09T00:12:21.232Z,1013.36
2024-05-09T00:13:21.037Z,1013.31
2024-05-09T00:14:21.013Z,1013.30
2024-05-09T00:15:21.055Z,1013.31
2024-05-09T00:16:20.969Z,1013.33
2024-05-09T00:17:21.082Z,1013.34
2024-05-09T00:18:21.147Z,1013.33
2024-05-09T00:19:21.108Z,1013.34
2024-05-09T00:20:28.062Z,1013.36
2024-05-09T00:21:21.946Z,1013.34
2024-05-09T00:22:20.945Z,1013.38
2024-05-09T00:23:20.950Z,1013.38
2024-05-09T00:24:20.885Z,1013.32
2024-05-09T00:25:20.946Z,1013.30
2024-05-09T00:26:20.974Z,1013.30
2024-05-09T00:27:20.974Z,1013.29
2024-05-09T00:28:20.921Z,1013.28
2024-05-09T00:29:21.132Z,1013.27
2024-05-09T00:30:28.012Z,1013.30
2024-05-09T00:31:21.788Z,1013.32
2024-05-09T00:32:21.067Z,1013.26
2024-05-09T00:33:21.073Z,1013.31
2024-05-09T00:34:20.827Z,1013.29
2024-05-09T00:35:20.830Z,1013.35
2024-05-09T00:36:20.759Z,1013.36
2024-05-09T00:37:20.715Z,1013.32
2024-05-09T00:38:20.763Z,1013.33
2024-05-09T00:39:20.714Z,1013.37
2024-05-09T00:40:30.780Z,1013.34
2024-05-09T00:41:21.716Z,1013.29
2024-05-09T00:42:20.681Z,1013.27
2024-05-09T00:43:20.640Z,1013.29
2024-05-09T00:44:20.735Z,1013.25
2024-05-09T00:45:20.670Z,1013.30
2024-05-09T00:46:20.644Z,1013.24
2024-05-09T00:47:20.817Z,1013.19
2024-05-09T00:48:21.617Z,1013.23
2024-05-09T00:49:20.762Z,1013.25
2024-05-09T00:50:29.413Z,1013.28
2024-05-09T00:51:21.602Z,1013.26
2024-05-09T00:52:20.544Z,1013.28
2024-05-09T00:53:20.623Z,1013.28
2024-05-09T00:54:20.529Z,1013.23
2024-05-09T00:55:20.502Z,1013.33
2024-05-09T00:56:20.588Z,1013.27
2024-05-09T00:57:20.508Z,1013.22
2024-05-09T00:58:20.476Z,1013.22
2024-05-09T00:59:20.549Z,1013.27
2024-05-09T01:00:27.260Z,1013.21
2024-05-09T01:01:21.479Z,1013.22
2024-05-09T01:02:20.501Z,1013.22
2024-05-09T01:03:20.907Z,1013.20
2024-05-09T01:04:20.533Z,1013.20
2024-05-09T01:05:20.440Z,1013.21
2024-05-09T01:06:20.407Z,1013.13
2024-05-09T01:07:20.403Z,1013.19
2024-05-09T01:08:20.547Z,1013.13
2024-05-09T01:09:20.364Z,1013.15
2024-05-09T01:10:27.639Z,1013.13
2024-05-09T01:11:21.478Z,1013.14
2024-05-09T01:12:20.471Z,1013.22
2024-05-09T01:13:20.334Z,1013.18
2024-05-09T01:14:20.416Z,1013.13
2024-05-09T01:15:20.287Z,1013.13
2024-05-09T01:16:20.291Z,1013.14
2024-05-09T01:17:20.346Z,1013.14
2024-05-09T01:18:20.462Z,1013.16
2024-05-09T01:19:20.413Z,1013.16
2024-05-09T01:20:31.503Z,1013.15
2024-05-09T01:21:21.306Z,1013.10
2024-05-09T01:22:20.241Z,1013.16
2024-05-09T01:23:20.285Z,1013.14
2024-05-09T01:24:20.212Z,1013.12
2024-05-09T01:25:20.193Z,1013.19
2024-05-09T01:26:20.268Z,1013.15
2024-05-09T01:27:20.233Z,1013.12
2024-05-09T01:28:20.148Z,1013.22
2024-05-09T01:29:20.223Z,1013.22
2024-05-09T01:30:24.387Z,1013.24
2024-05-09T01:31:21.111Z,1013.25
2024-05-09T01:32:20.225Z,1013.26
2024-05-09T01:33:20.398Z,1013.28
2024-05-09T01:34:20.214Z,1013.28
2024-05-09T01:35:20.148Z,1013.28
2024-05-09T01:36:20.204Z,1013.25
2024-05-09T01:37:20.073Z,1013.31
2024-05-09T01:38:20.193Z,1013.28
2024-05-09T01:39:20.049Z,1013.31
2024-05-09T01:40:28.538Z,1013.32
2024-05-09T01:41:21.133Z,1013.33
2024-05-09T01:42:20.013Z,1013.34
2024-05-09T01:43:19.981Z,1013.40
2024-05-09T01:44:20.062Z,1013.31
2024-05-09T01:45:19.968Z,1013.34
2024-05-09T01:46:19.999Z,1013.31
2024-05-09T01:47:20.002Z,1013.37
2024-05-09T01:48:20.046Z,1013.35
2024-05-09T01:49:19.988Z,1013.42
2024-05-09T01:50:28.971Z,1013.42
2024-05-09T01:51:21.035Z,1013.40
2024-05-09T01:52:19.903Z,1013.41
2024-05-09T01:53:19.983Z,1013.43
2024-05-09T01:54:19.864Z,1013.39
2024-05-09T01:55:19.857Z,1013.39
2024-05-09T01:56:19.883Z,1013.39
2024-05-09T01:57:19.872Z,1013.34
2024-05-09T01:58:19.826Z,1013.33
2024-05-09T01:59:19.896Z,1013.36
2024-05-09T02:00:30.196Z,1013.32
2024-05-09T02:01:20.832Z,1013.34
2024-05-09T02:02:19.918Z,1013.37
2024-05-09T02:03:19.938Z,1013.30
2024-05-09T02:04:20.007Z,1013.39
2024-05-09T02:05:19.867Z,1013.31
2024-05-09T02:06:19.731Z,1013.33
2024-05-09T02:07:19.770Z,1013.32
2024-05-09T02:08:19.999Z,1013.29
2024-05-09T02:09:19.687Z,1013.34
2024-05-09T02:10:25.980Z,1013.31
2024-05-09T02:11:20.798Z,1013.29
2024-05-09T02:12:19.868Z,1013.32
2024-05-09T02:13:19.646Z,1013.26
2024-05-09T02:14:19.688Z,1013.25
2024-05-09T02:15:19.621Z,1013.20
2024-05-09T02:16:19.619Z,1013.23
2024-05-09T02:17:19.843Z,1013.22
2024-05-09T02:18:19.692Z,1013.19
2024-05-09T02:19:19.719Z,1013.26
2024-05-09T02:20:29.981Z,1013.24
2024-05-09T02:21:20.560Z,1013.28
2024-05-09T02:22:19.710Z,1013.31
2024-05-09T02:23:19.667Z,1013.29
2024-05-09T02:24:19.536Z,1013.31
2024-05-09T02:25:19.531Z,1013.32
2024-05-09T02:26:19.581Z,1013.31
2024-05-09T02:27:19.507Z,1013.33
2024-05-09T02:28:19.479Z,1013.31
2024-05-09T02:29:19.593Z,1013.33
2024-05-09T02:30:26.406Z,1013.31
2024-05-09T02:31:20.471Z,1013.35
2024-05-09T02:32:19.540Z,1013.35
2024-05-09T02:33:19.603Z,1013.31
2024-05-09T02:34:19.510Z,1013.37
2024-05-09T02:35:19.442Z,1013.38
2024-05-09T02:36:19.421Z,1013.32
2024-05-09T02:37:19.396Z,1013.34
2024-05-09T02:38:19.403Z,1013.35
2024-05-09T02:39:19.357Z,1013.38
2024-05-09T02:40:25.640Z,1013.34
2024-05-09T02:41:20.371Z,1013.33
2024-05-09T02:42:19.351Z,1013.30
2024-05-09T02:43:19.326Z,1013.31
2024-05-09T02:44:19.418Z,1013.30
2024-05-09T02:45:19.303Z,1013.31
2024-05-09T02:46:19.282Z,1013.31
2024-05-09T02:47:19.459Z,1013.38
2024-05-09T02:48:19.464Z,1013.29
2024-05-09T02:49:19.592Z,1013.32
2024-05-09T02:50:26.079Z,1013.30
2024-05-09T02:51:20.232Z,1013.30
2024-05-09T02:52:19.251Z,1013.28
2024-05-09T02:53:19.293Z,1013.32
2024-05-09T02:54:19.205Z,1013.31
2024-05-09T02:55:19.194Z,1013.27
2024-05-09T02:56:19.353Z,1013.29
2024-05-09T02:57:19.264Z,1013.30
2024-05-09T02:58:19.159Z,1013.29
2024-05-09T02:59:19.316Z,1013.27
2024-05-09T03:00:26.241Z,1013.31
2024-05-09T03:01:20.190Z,1013.27
2024-05-09T03:02:19.215Z,1013.23
2024-05-09T03:03:19.475Z,1013.25
2024-05-09T03:04:19.144Z,1013.25
2024-05-09T03:05:19.196Z,1013.28
2024-05-09T03:06:19.076Z,1013.29
2024-05-09T03:07:20.205Z,1013.27
2024-05-09T03:08:19.177Z,1013.26
2024-05-09T03:09:19.038Z,1013.30
2024-05-09T03:10:25.540Z,1013.23
2024-05-09T03:11:20.166Z,1013.30
2024-05-09T03:12:19.136Z,1013.31
2024-05-09T03:13:19.020Z,1013.31
2024-05-09T03:14:19.010Z,1013.26
2024-05-09T03:15:18.980Z,1013.27
2024-05-09T03:16:18.953Z,1013.22
2024-05-09T03:17:19.201Z,1013.29
2024-05-09T03:18:19.074Z,1013.29
2024-05-09T03:19:19.048Z,1013.29
2024-05-09T03:20:23.886Z,1013.24
2024-05-09T03:21:19.909Z,1013.25
2024-05-09T03:22:18.901Z,1013.25
2024-05-09T03:23:18.968Z,1013.25
2024-05-09T03:24:18.885Z,1013.21
2024-05-09T03:25:18.879Z,1013.24
2024-05-09T03:26:18.980Z,1013.16
2024-05-09T03:27:18.874Z,1013.21
2024-05-09T03:28:18.832Z,1013.20
2024-05-09T03:29:19.041Z,1013.18
2024-05-09T03:30:26.137Z,1013.12
2024-05-09T03:31:19.815Z,1013.17
2024-05-09T03:32:18.881Z,1013.17
2024-05-09T03:33:20.272Z,1013.20
2024-05-09T03:34:18.870Z,1013.25
2024-05-09T03:35:18.842Z,1013.22
2024-05-09T03:36:18.777Z,1013.24
2024-05-09T03:37:18.733Z,1013.20
2024-05-09T03:38:18.799Z,1013.23
2024-05-09T03:39:18.711Z,1013.20
2024-05-09T03:40:23.520Z,1013.26
2024-05-09T03:41:19.811Z,1013.22
2024-05-09T03:42:18.698Z,1013.23
2024-05-09T03:43:18.704Z,1013.22
2024-05-09T03:44:18.703Z,1013.19
2024-05-09T03:45:18.656Z,1013.18
2024-05-09T03:46:18.660Z,1013.18
2024-05-09T03:47:18.698Z,1013.18
2024-05-09T03:48:18.802Z,1013.17
2024-05-09T03:49:18.768Z,1013.23
2024-05-09T03:50:26.280Z,1013.22
2024-05-09T03:51:19.692Z,1013.14
2024-05-09T03:52:18.591Z,1013.15
2024-05-09T03:53:18.657Z,1013.12
2024-05-09T03:54:18.589Z,1013.13
2024-05-09T03:55:18.546Z,1013.08
2024-05-09T03:56:18.597Z,1013.14
2024-05-09T03:57:18.515Z,1013.13
2024-05-09T03:58:18.518Z,1013.15
2024-05-09T03:59:18.560Z,1013.13
2024-05-09T04:00:26.491Z,1013.19
2024-05-09T04:01:19.594Z,1013.12
2024-05-09T04:02:18.591Z,1013.12
2024-05-09T04:03:18.919Z,1013.15
2024-05-09T04:04:18.570Z,1013.12
2024-05-09T04:05:18.462Z,1013.14
2024-05-09T04:06:18.421Z,1013.12
2024-05-09T04:07:18.481Z,1013.10
2024-05-09T04:08:18.496Z,1013.13
2024-05-09T04:09:18.400Z,1013.15
2024-05-09T04:10:27.662Z,1013.15
2024-05-09T04:11:19.473Z,1013.18
2024-05-09T04:12:18.530Z,1013.21
2024-05-09T04:13:18.355Z,1013.24
2024-05-09T04:14:18.316Z,1013.16
2024-05-09T04:15:18.315Z,1013.25
2024-05-09T04:16:18.447Z,1013.24
2024-05-09T04:17:18.419Z,1013.26
2024-05-09T04:18:18.358Z,1013.27
2024-05-09T04:19:18.472Z,1013.26
2024-05-09T04:20:28.795Z,1013.24
2024-05-09T04:21:19.272Z,1013.34
2024-05-09T04:22:18.229Z,1013.28
2024-05-09T04:23:18.230Z,1013.28
2024-05-09T04:24:18.255Z,1013.27
2024-05-09T04:25:18.220Z,1013.27
2024-05-09T04:26:18.242Z,1013.27
2024-05-09T04:27:18.189Z,1013.30
2024-05-09T04:28:18.282Z,1013.29
2024-05-09T04:29:18.204Z,1013.30
2024-05-09T04:30:26.044Z,1013.33
2024-05-09T04:31:19.139Z,1013.35
2024-05-09T04:32:18.218Z,1013.36
2024-05-09T04:33:18.280Z,1013.30
2024-05-09T04:34:18.188Z,1013.36
2024-05-09T04:35:18.135Z,1013.29
2024-05-09T04:36:18.089Z,1013.32
2024-05-09T04:37:18.071Z,1013.31
2024-05-09T04:38:18.202Z,1013.37
2024-05-09T04:39:18.046Z,1013.30
2024-05-09T04:40:24.469Z,1013.29
2024-05-09T04:41:19.070Z,1013.38
2024-05-09T04:42:18.024Z,1013.37
2024-05-09T04:43:18.019Z,1013.35
2024-05-09T04:44:18.053Z,1013.34
2024-05-09T04:45:17.992Z,1013.37
2024-05-09T04:46:17.978Z,1013.32
2024-05-09T04:47:18.259Z,1013.38
2024-05-09T04:48:18.081Z,1013.37
2024-05-09T04:49:18.274Z,1013.36
2024-05-09T04:50:28.837Z,1013.35
2024-05-09T04:51:18.961Z,1013.36
2024-05-09T04:52:17.913Z,1013.30
2024-05-09T04:53:18.214Z,1013.33
2024-05-09T04:54:29.887Z,1013.36
2024-05-09T04:55:18.871Z,1013.42
2024-05-09T04:56:17.931Z,1013.41
2024-05-09T04:57:17.861Z,1013.43
2024-05-09T04:58:17.875Z,1013.44
2024-05-09T04:59:17.860Z,1013.40
2024-05-09T05:00:25.734Z,1013.39
2024-05-09T05:01:18.874Z,1013.46
2024-05-09T05:02:17.892Z,1013.45
2024-05-09T05:03:18.139Z,1013.49
2024-05-09T05:04:17.932Z,1013.52
2024-05-09T05:05:17.942Z,1013.50
2024-05-09T05:06:17.799Z,1013.55
2024-05-09T05:07:17.746Z,1013.52
2024-05-09T05:08:18.932Z,1013.52
2024-05-09T05:09:17.725Z,1013.51
2024-05-09T05:10:25.193Z,1013.52
2024-05-09T05:11:18.792Z,1013.52
2024-05-09T05:12:17.810Z,1013.56
2024-05-09T05:13:18.694Z,1013.54
2024-05-09T05:14:17.723Z,1013.57
2024-05-09T05:15:17.665Z,1013.57
2024-05-09T05:16:17.661Z,1013.58
2024-05-09T05:17:17.671Z,1013.54
2024-05-09T05:18:17.965Z,1013.55
2024-05-09T05:19:17.924Z,1013.56
2024-05-09T05:20:27.044Z,1013.57
2024-05-09T05:21:18.817Z,1013.50
2024-05-09T05:22:17.570Z,1013.57
2024-05-09T05:23:17.586Z,1013.60
2024-05-09T05:24:17.561Z,1013.47
2024-05-09T05:25:17.536Z,1013.58
2024-05-09T05:26:17.645Z,1013.53
2024-05-09T05:27:17.510Z,1013.53
2024-05-09T05:28:17.632Z,1013.55
2024-05-09T05:29:20.719Z,1013.58
2024-05-09T05:30:21.539Z,1013.54
2024-05-09T05:31:18.584Z,1013.61
2024-05-09T05:32:17.538Z,1013.55
2024-05-09T05:33:17.585Z,1013.55
2024-05-09T05:34:17.454Z,1013.57
2024-05-09T05:35:17.451Z,1013.58
2024-05-09T05:36:17.677Z,1013.59
2024-05-09T05:37:17.417Z,1013.56
2024-05-09T05:38:17.453Z,1013.49
2024-05-09T05:39:17.391Z,1013.51
2024-05-09T05:40:25.144Z,1013.54
2024-05-09T05:41:18.431Z,1013.54
2024-05-09T05:42:17.352Z,1013.52
2024-05-09T05:43:17.482Z,1013.57
2024-05-09T05:44:17.566Z,1013.57
2024-05-09T05:45:17.301Z,1013.59
2024-05-09T05:46:17.333Z,1013.58
2024-05-09T05:47:17.392Z,1013.57
2024-05-09T05:48:18.026Z,1013.60
2024-05-09T05:49:17.453Z,1013.64
2024-05-09T05:50:24.719Z,1013.63
2024-05-09T05:51:18.315Z,1013.61
2024-05-09T05:52:17.245Z,1013.63
2024-05-09T05:53:17.337Z,1013.64
2024-05-09T05:54:17.223Z,1013.62
2024-05-09T05:55:17.205Z,1013.66
2024-05-09T05:56:17.254Z,1013.67
2024-05-09T05:57:17.208Z,1013.67
2024-05-09T05:58:17.219Z,1013.71
2024-05-09T05:59:17.176Z,1013.67
2024-05-09T06:00:26.079Z,1013.71
2024-05-09T06:01:18.171Z,1013.71
2024-05-09T06:02:17.238Z,1013.74
2024-05-09T06:03:17.176Z,1013.70
2024-05-09T06:04:17.177Z,1013.67
2024-05-09T06:05:17.229Z,1013.65
2024-05-09T06:06:17.098Z,1013.70
2024-05-09T06:07:17.063Z,1013.69
2024-05-09T06:08:17.147Z,1013.65
2024-05-09T06:09:17.077Z,1013.64
2024-05-09T06:10:21.664Z,1013.66
2024-05-09T06:11:18.139Z,1013.67
2024-05-09T06:12:17.164Z,1013.74
2024-05-09T06:13:16.992Z,1013.71
2024-05-09T06:14:17.123Z,1013.72
2024-05-09T06:15:16.996Z,1013.73
2024-05-09T06:16:16.966Z,1013.72
2024-05-09T06:17:17.192Z,1013.78
2024-05-09T06:18:17.240Z,1013.71
2024-05-09T06:19:17.079Z,1013.76
2024-05-09T06:20:23.842Z,1013.77
2024-05-09T06:21:18.151Z,1013.73
2024-05-09T06:22:16.984Z,1013.74
2024-05-09T06:23:17.032Z,1013.65
2024-05-09T06:24:16.991Z,1013.64
2024-05-09T06:25:16.869Z,1013.71
2024-05-09T06:26:16.925Z,1013.70
2024-05-09T06:27:16.846Z,1013.69
2024-05-09T06:28:16.872Z,1013.68
2024-05-09T06:29:16.932Z,1013.69
2024-05-09T06:30:25.783Z,1013.74
2024-05-09T06:31:17.795Z,1013.71
2024-05-09T06:32:16.904Z,1013.69
2024-05-09T06:33:17.180Z,1013.67
2024-05-09T06:34:16.939Z,1013.73
2024-05-09T06:35:16.830Z,1013.71
2024-05-09T06:36:16.766Z,1013.69
2024-05-09T06:37:16.797Z,1013.67
2024-05-09T06:38:16.799Z,1013.69
2024-05-09T06:39:16.729Z,1013.67
2024-05-09T06:40:21.430Z,1013.64
2024-05-09T06:41:17.797Z,1013.64
2024-05-09T06:42:17.696Z,1013.68
2024-05-09T06:43:18.800Z,1013.72
2024-05-09T06:44:16.682Z,1013.64
2024-05-09T06:45:16.664Z,1013.68
2024-05-09T06:46:16.633Z,1013.73
2024-05-09T06:47:16.759Z,1013.66
2024-05-09T06:48:16.858Z,1013.69
2024-05-09T06:49:16.817Z,1013.64
2024-05-09T06:50:23.692Z,1013.68
2024-05-09T06:51:17.690Z,1013.68
2024-05-09T06:52:16.601Z,1013.55
2024-05-09T06:53:16.629Z,1013.59
2024-05-09T06:54:16.575Z,1013.58
2024-05-09T06:55:16.552Z,1013.58
2024-05-09T06:56:16.624Z,1013.54
2024-05-09T06:57:16.536Z,1013.59
2024-05-09T06:58:16.586Z,1013.58
2024-05-09T06:59:16.601Z,1013.58
2024-05-09T07:00:23.062Z,1013.62
2024-05-09T07:01:17.495Z,1013.59
2024-05-09T07:02:16.581Z,1013.60
2024-05-09T07:03:18.406Z,1013.58
2024-05-09T07:04:16.681Z,1013.63
2024-05-09T07:05:16.590Z,1013.66
2024-05-09T07:06:16.518Z,1013.61
2024-05-09T07:07:16.444Z,1013.59
2024-05-09T07:08:16.748Z,1013.63
2024-05-09T07:09:16.433Z,1013.59
2024-05-09T07:10:22.122Z,1013.62
2024-05-09T07:11:17.477Z,1013.59
2024-05-09T07:12:16.662Z,1013.65
2024-05-09T07:13:16.374Z,1013.64
2024-05-09T07:14:16.458Z,1013.68
2024-05-09T07:15:16.361Z,1013.66
2024-05-09T07:16:16.413Z,1013.66
2024-05-09T07:17:16.515Z,1013.63
2024-05-09T07:18:18.180Z,1013.67
2024-05-09T07:19:16.432Z,1013.69
2024-05-09T07:20:23.514Z,1013.64
2024-05-09T07:21:17.331Z,1013.63
2024-05-09T07:22:16.268Z,1013.65
2024-05-09T07:23:16.485Z,1013.61
2024-05-09T07:24:16.272Z,1013.65
2024-05-09T07:25:16.231Z,1013.65
2024-05-09T07:26:16.324Z,1013.63
2024-05-09T07:27:16.216Z,1013.66
2024-05-09T07:28:16.300Z,1013.68
2024-05-09T07:29:16.223Z,1013.66
2024-05-09T07:30:23.000Z,1013.70
2024-05-09T07:31:17.152Z,1013.69
2024-05-09T07:32:16.350Z,1013.69
2024-05-09T07:33:16.397Z,1013.64
2024-05-09T07:34:17.295Z,1013.68
2024-05-09T07:35:16.227Z,1013.65
2024-05-09T07:36:16.143Z,1013.64
2024-05-09T07:37:16.082Z,1013.65
2024-05-09T07:38:23.758Z,1013.69
2024-05-09T07:39:16.057Z,1013.64
2024-05-09T07:40:24.892Z,1013.67
2024-05-09T07:41:17.192Z,1013.65
2024-05-09T07:42:16.024Z,1013.68
2024-05-09T07:43:16.419Z,1013.66
2024-05-09T07:44:16.039Z,1013.67
2024-05-09T07:45:38.982Z,1013.64
2024-05-09T07:47:14.180Z,1013.63
2024-05-09T07:48:28.965Z,1013.63
2024-05-09T07:49:59.741Z,1013.61
2024-05-09T07:50:56.111Z,1013.56
2024-05-09T07:53:29.879Z,1013.51
2024-05-09T07:53:37.936Z,1013.50
2024-05-09T07:54:17.133Z,1013.45
2024-05-09T07:55:16.318Z,1013.48
2024-05-09T07:56:16.316Z,1013.43
2024-05-09T07:57:15.979Z,1013.52
2024-05-09T07:58:15.855Z,1013.47
2024-05-09T07:59:15.913Z,1013.49
2024-05-09T08:00:20.414Z,1013.46
2024-05-09T08:01:16.948Z,1013.49
2024-05-09T08:02:15.907Z,1013.46
2024-05-09T08:03:15.960Z,1013.53
2024-05-09T08:04:15.893Z,1013.45
2024-05-09T08:05:16.043Z,1013.48
2024-05-09T08:06:15.823Z,1013.50
2024-05-09T08:07:15.839Z,1013.43
2024-05-09T08:08:15.784Z,1013.43
2024-05-09T08:09:20.811Z,1013.43
2024-05-09T08:10:22.038Z,1013.44
2024-05-09T08:11:16.745Z,1013.40
2024-05-09T08:12:15.688Z,1013.35
2024-05-09T08:13:15.730Z,1013.37
2024-05-09T08:14:15.679Z,1013.40
2024-05-09T08:15:15.658Z,1013.40
2024-05-09T08:16:15.802Z,1013.39
2024-05-09T08:17:15.664Z,1013.37
2024-05-09T08:18:15.952Z,1013.36
2024-05-09T08:19:15.761Z,1013.36
2024-05-09T08:20:22.954Z,1013.36
2024-05-09T08:21:16.610Z,1013.36
2024-05-09T08:22:15.597Z,1013.39
2024-05-09T08:23:15.610Z,1013.43
2024-05-09T08:24:15.630Z,1013.38
2024-05-09T08:25:15.855Z,1013.41
2024-05-09T08:26:15.576Z,1013.40
2024-05-09T08:27:15.568Z,1013.41
2024-05-09T08:28:15.685Z,1013.43
2024-05-09T08:29:15.530Z,1013.43
2024-05-09T08:30:21.823Z,1013.39
2024-05-09T08:31:16.624Z,1013.38
2024-05-09T08:32:15.569Z,1013.31
2024-05-09T08:33:15.738Z,1013.31
2024-05-09T08:34:15.606Z,1013.32
2024-05-09T08:35:15.445Z,1013.34
2024-05-09T08:36:15.440Z,1013.35
2024-05-09T08:37:21.503Z,1013.39
2024-05-09T08:38:16.538Z,1013.41
2024-05-09T08:39:15.394Z,1013.37
2024-05-09T08:40:23.696Z,1013.34
2024-05-09T08:41:16.396Z,1013.40
2024-05-09T08:42:15.385Z,1013.34
2024-05-09T08:43:15.550Z,1013.31
2024-05-09T08:44:15.350Z,1013.38
2024-05-09T08:45:15.316Z,1013.31
2024-05-09T08:46:15.374Z,1013.31
2024-05-09T08:47:15.454Z,1013.30
2024-05-09T08:48:16.317Z,1013.26
2024-05-09T08:49:15.572Z,1013.26
2024-05-09T08:50:24.336Z,1013.34
2024-05-09T08:51:16.277Z,1013.33
2024-05-09T08:52:15.415Z,1013.31
2024-05-09T08:53:15.586Z,1013.29
2024-05-09T08:54:15.286Z,1013.29
2024-05-09T08:55:15.368Z,1013.29
2024-05-09T08:56:15.336Z,1013.27
2024-05-09T08:57:15.328Z,1013.32
2024-05-09T08:58:15.874Z,1013.31
2024-05-09T08:59:15.199Z,1013.39
2024-05-09T09:00:21.633Z,1013.36
2024-05-09T09:01:16.201Z,1013.36
2024-05-09T09:02:15.362Z,1013.37
2024-05-09T09:03:15.530Z,1013.33
2024-05-09T09:04:15.205Z,1013.35
2024-05-09T09:05:15.157Z,1013.33
2024-05-09T09:06:15.124Z,1013.33
2024-05-09T09:07:15.122Z,1013.25
2024-05-09T09:08:15.100Z,1013.28
2024-05-09T09:09:15.061Z,1013.28
2024-05-09T09:10:21.227Z,1013.37
2024-05-09T09:11:16.125Z,1013.32
2024-05-09T09:12:15.068Z,1013.30
2024-05-09T09:13:15.071Z,1013.31
2024-05-09T09:14:14.995Z,1013.31
2024-05-09T09:15:14.982Z,1013.27
2024-05-09T09:16:15.036Z,1013.29
2024-05-09T09:17:15.011Z,1013.28
2024-05-09T09:18:15.122Z,1013.38
2024-05-09T09:19:15.220Z,1013.34
2024-05-09T09:20:22.996Z,1013.27
2024-05-09T09:21:15.953Z,1013.29
2024-05-09T09:22:14.991Z,1013.27
2024-05-09T09:23:14.890Z,1013.32
2024-05-09T09:24:14.958Z,1013.36
2024-05-09T09:25:14.935Z,1013.28
2024-05-09T09:26:14.868Z,1013.36
2024-05-09T09:27:14.860Z,1013.33
2024-05-09T09:28:15.006Z,1013.37
2024-05-09T09:29:14.845Z,1013.30
2024-05-09T09:30:27.778Z,1013.25
2024-05-09T09:31:15.826Z,1013.30
2024-05-09T09:32:14.794Z,1013.28
2024-05-09T09:33:14.890Z,1013.24
2024-05-09T09:34:14.902Z,1013.26
2024-05-09T09:35:14.796Z,1013.20
2024-05-09T09:36:14.777Z,1013.22
2024-05-09T09:37:14.762Z,1013.22
2024-05-09T09:38:14.732Z,1013.19
2024-05-09T09:39:14.731Z,1013.18
2024-05-09T09:40:15.678Z,1013.22
2024-05-09T09:41:14.766Z,1013.17
2024-05-09T09:42:14.690Z,1013.22
2024-05-09T09:43:15.091Z,1013.28
2024-05-09T09:44:14.665Z,1013.19
2024-05-09T09:45:14.690Z,1013.17
2024-05-09T09:46:14.821Z,1013.19
2024-05-09T09:47:14.675Z,1013.22
2024-05-09T09:48:14.770Z,1013.24
2024-05-09T09:49:14.767Z,1013.26
2024-05-09T09:50:17.195Z,1013.26
2024-05-09T09:51:15.751Z,1013.25
2024-05-09T09:52:14.745Z,1013.21
2024-05-09T09:53:14.594Z,1013.20
2024-05-09T09:54:14.553Z,1013.19
2024-05-09T09:55:14.683Z,1013.17
2024-05-09T09:56:14.556Z,1013.17
2024-05-09T09:57:14.534Z,1013.22
2024-05-09T09:58:14.864Z,1013.20
2024-05-09T09:59:14.548Z,1013.23
2024-05-09T10:00:20.735Z,1013.18
2024-05-09T10:01:15.620Z,1013.18
2024-05-09T10:02:14.694Z,1013.15
2024-05-09T10:03:14.542Z,1013.11
2024-05-09T10:04:14.546Z,1013.14
2024-05-09T10:05:14.581Z,1013.11
2024-05-09T10:06:14.423Z,1013.13
2024-05-09T10:07:14.578Z,1013.08
2024-05-09T10:08:14.452Z,1013.12
2024-05-09T10:09:14.423Z,1013.07
2024-05-09T10:10:16.560Z,1013.04
2024-05-09T10:11:15.401Z,1013.08
2024-05-09T10:12:14.454Z,1013.05
2024-05-09T10:13:14.488Z,1013.05
2024-05-09T10:14:14.337Z,1013.09
2024-05-09T10:15:14.324Z,1013.08
2024-05-09T10:16:14.442Z,1013.02
2024-05-09T10:17:14.334Z,1013.02
2024-05-09T10:18:14.622Z,1013.04
2024-05-09T10:19:14.417Z,1013.07
2024-05-09T10:20:21.419Z,1013.00
2024-05-09T10:21:15.281Z,1013.00
2024-05-09T10:22:14.361Z,1012.97
2024-05-09T10:23:14.232Z,1013.07
2024-05-09T10:24:14.232Z,1013.02
2024-05-09T10:25:14.344Z,1013.00
2024-05-09T10:26:14.215Z,1013.02
2024-05-09T10:27:14.218Z,1013.00
2024-05-09T10:28:14.361Z,1012.99
2024-05-09T10:29:14.181Z,1013.06
2024-05-09T10:30:21.277Z,1013.05
2024-05-09T10:31:15.501Z,1013.07
2024-05-09T10:32:14.135Z,1013.07
2024-05-09T10:33:14.263Z,1013.17
2024-05-09T10:34:14.195Z,1013.02
2024-05-09T10:35:14.099Z,1013.01
2024-05-09T10:36:14.154Z,1012.97
2024-05-09T10:37:14.159Z,1012.98
2024-05-09T10:38:14.060Z,1013.04
2024-05-09T10:39:14.101Z,1012.94
2024-05-09T10:40:20.262Z,1013.01
2024-05-09T10:41:15.050Z,1013.02
2024-05-09T10:42:14.035Z,1013.00
2024-05-09T10:43:14.092Z,1012.97
2024-05-09T10:44:14.056Z,1012.96
2024-05-09T10:45:14.011Z,1013.00
2024-05-09T10:46:14.064Z,1012.93
2024-05-09T10:47:13.997Z,1012.94
2024-05-09T10:48:13.996Z,1012.93
2024-05-09T10:49:14.083Z,1012.93
2024-05-09T10:50:22.247Z,1012.97
2024-05-09T10:51:14.948Z,1012.91
2024-05-09T10:52:14.031Z,1012.89
2024-05-09T10:53:13.931Z,1012.94
2024-05-09T10:54:13.895Z,1012.91
2024-05-09T10:55:13.969Z,1012.90
2024-05-09T10:56:13.928Z,1012.89
2024-05-09T10:57:13.864Z,1012.88
2024-05-09T10:58:13.939Z,1012.83
2024-05-09T10:59:13.850Z,1012.81
2024-05-09T11:00:19.474Z,1012.86
2024-05-09T11:01:14.954Z,1012.85
2024-05-09T11:02:13.900Z,1012.85
2024-05-09T11:03:13.860Z,1012.84
2024-05-09T11:04:14.112Z,1012.85
2024-05-09T11:05:13.912Z,1012.82
2024-05-09T11:06:13.757Z,1012.81
2024-05-09T11:07:13.798Z,1012.84
2024-05-09T11:08:13.753Z,1012.82
2024-05-09T11:09:13.723Z,1012.80
2024-05-09T11:10:17.806Z,1012.79
2024-05-09T11:11:13.697Z,1012.76
2024-05-09T11:12:13.837Z,1012.76
2024-05-09T11:13:13.770Z,1012.79
2024-05-09T11:14:13.695Z,1012.77
2024-05-09T11:15:13.662Z,1012.80
2024-05-09T11:16:15.422Z,1012.79
2024-05-09T11:17:13.692Z,1012.79
2024-05-09T11:18:14.482Z,1012.73
2024-05-09T11:19:13.973Z,1012.71
2024-05-09T11:20:19.898Z,1012.68
2024-05-09T11:21:14.621Z,1012.71
2024-05-09T11:22:13.647Z,1012.67
2024-05-09T11:23:13.580Z,1012.68
2024-05-09T11:24:13.603Z,1012.66
2024-05-09T11:25:13.640Z,1012.72
2024-05-09T11:26:13.569Z,1012.69
2024-05-09T11:27:13.571Z,1012.66
2024-05-09T11:28:13.674Z,1012.65
2024-05-09T11:29:15.033Z,1012.63
2024-05-09T11:30:20.859Z,1012.66
2024-05-09T11:31:14.643Z,1012.65
2024-05-09T11:32:13.654Z,1012.64
2024-05-09T11:33:14.372Z,1012.62
2024-05-09T11:34:13.468Z,1012.63
2024-05-09T11:35:13.478Z,1012.63
2024-05-09T11:36:13.445Z,1012.64
2024-05-09T11:37:13.698Z,1012.67
2024-05-09T11:38:13.431Z,1012.62
2024-05-09T11:39:13.392Z,1012.66
2024-05-09T11:40:21.160Z,1012.63
2024-05-09T11:41:14.374Z,1012.61
2024-05-09T11:42:13.377Z,1012.56
2024-05-09T11:43:13.459Z,1012.55
2024-05-09T11:44:13.378Z,1012.53
2024-05-09T11:45:13.328Z,1012.51
2024-05-09T11:46:13.614Z,1012.43
2024-05-09T11:47:13.359Z,1012.49
2024-05-09T11:48:13.390Z,1012.44
2024-05-09T11:49:13.521Z,1012.47
2024-05-09T11:50:22.337Z,1012.55
2024-05-09T11:51:14.259Z,1012.51
2024-05-09T11:52:13.341Z,1012.44
2024-05-09T11:53:13.292Z,1012.48
2024-05-09T11:54:14.260Z,1012.48
2024-05-09T11:55:13.297Z,1012.44
2024-05-09T11:56:13.247Z,1012.46
2024-05-09T11:57:13.233Z,1012.47
2024-05-09T11:58:13.408Z,1012.45
2024-05-09T11:59:13.186Z,1012.43
2024-05-09T12:00:20.718Z,1012.44
2024-05-09T12:01:14.272Z,1012.42
2024-05-09T12:02:14.322Z,1012.42
2024-05-09T12:03:13.176Z,1012.37
2024-05-09T12:04:13.297Z,1012.33
2024-05-09T12:05:13.245Z,1012.34
2024-05-09T12:06:13.199Z,1012.35
2024-05-09T12:07:13.241Z,1012.28